sensor_id;sensor_type;location;lat;lon;timestamp;pressure;altitude;pressure_sealevel;temperature;humidity
2188;BME280;1100;52.014;8.540;2022-12-20T00:00:42;100150.41;;;7.70;88.43
2188;BME280;1100;52.014;8.540;2022-12-20T00:03:07;100153.66;;;7.65;88.56
2188;BME280;1100;52.014;8.540;2022-12-20T00:05:36;100156.44;;;7.65;88.51
2188;BME280;1100;52.014;8.540;2022-12-20T00:08:01;100149.66;;;7.70;88.96
2188;BME280;1100;52.014;8.540;2022-12-20T00:10:27;100147.22;;;7.72;88.53
2188;BME280;1100;52.014;8.540;2022-12-20T00:12:52;100155.53;;;7.72;88.79
2188;BME280;1100;52.014;8.540;2022-12-20T00:15:17;100144.09;;;7.70;88.75
2188;BME280;1100;52.014;8.540;2022-12-20T00:17:42;100150.00;;;7.72;88.87
2188;BME280;1100;52.014;8.540;2022-12-20T00:20:08;100138.50;;;7.73;88.65
2188;BME280;1100;52.014;8.540;2022-12-20T00:22:34;100130.88;;;7.81;89.13
2188;BME280;1100;52.014;8.540;2022-12-20T00:24:59;100137.56;;;7.84;89.06
2188;BME280;1100;52.014;8.540;2022-12-20T00:27:24;100144.63;;;7.89;88.96
2188;BME280;1100;52.014;8.540;2022-12-20T00:29:49;100130.00;;;7.88;88.77
2188;BME280;1100;52.014;8.540;2022-12-20T00:32:15;100135.16;;;7.86;88.70
2188;BME280;1100;52.014;8.540;2022-12-20T00:34:40;100119.75;;;7.85;89.06
2188;BME280;1100;52.014;8.540;2022-12-20T00:37:06;100125.59;;;7.91;89.35
2188;BME280;1100;52.014;8.540;2022-12-20T00:39:31;100123.19;;;7.93;89.33
2188;BME280;1100;52.014;8.540;2022-12-20T00:41:56;100122.31;;;8.00;89.29
2188;BME280;1100;52.014;8.540;2022-12-20T00:44:22;100115.13;;;8.02;89.26
2188;BME280;1100;52.014;8.540;2022-12-20T00:46:47;100107.25;;;8.01;89.08
2188;BME280;1100;52.014;8.540;2022-12-20T00:49:12;100108.47;;;8.00;89.04
2188;BME280;1100;52.014;8.540;2022-12-20T00:51:37;100106.00;;;8.05;89.50
2188;BME280;1100;52.014;8.540;2022-12-20T00:54:03;100106.72;;;8.09;89.26
2188;BME280;1100;52.014;8.540;2022-12-20T00:56:28;100101.53;;;8.12;89.44
2188;BME280;1100;52.014;8.540;2022-12-20T00:58:53;100100.22;;;8.20;89.31
2188;BME280;1100;52.014;8.540;2022-12-20T01:01:23;100104.97;;;8.19;89.23
2188;BME280;1100;52.014;8.540;2022-12-20T01:03:49;100099.41;;;8.19;89.31
2188;BME280;1100;52.014;8.540;2022-12-20T01:06:15;100091.00;;;8.27;89.44
2188;BME280;1100;52.014;8.540;2022-12-20T01:08:42;100090.91;;;8.30;89.34
2188;BME280;1100;52.014;8.540;2022-12-20T01:11:18;100092.84;;;8.33;89.44
2188;BME280;1100;52.014;8.540;2022-12-20T01:13:47;100094.78;;;8.37;89.38
2188;BME280;1100;52.014;8.540;2022-12-20T01:18:39;100084.44;;;8.41;89.33
2188;BME280;1100;52.014;8.540;2022-12-20T01:21:11;100083.63;;;8.40;89.09
2188;BME280;1100;52.014;8.540;2022-12-20T01:23:37;100086.81;;;8.39;89.15
2188;BME280;1100;52.014;8.540;2022-12-20T01:26:09;100095.94;;;8.39;89.24
2188;BME280;1100;52.014;8.540;2022-12-20T01:28:36;100091.94;;;8.40;89.35
2188;BME280;1100;52.014;8.540;2022-12-20T01:31:05;100100.19;;;8.44;89.00
2188;BME280;1100;52.014;8.540;2022-12-20T01:33:31;100075.69;;;8.42;89.26
2188;BME280;1100;52.014;8.540;2022-12-20T01:36:02;100071.34;;;8.41;89.32
2188;BME280;1100;52.014;8.540;2022-12-20T01:38:28;100077.19;;;8.47;89.25
2188;BME280;1100;52.014;8.540;2022-12-20T01:40:55;100081.50;;;8.48;89.22
2188;BME280;1100;52.014;8.540;2022-12-20T01:43:22;100079.59;;;8.45;89.09
2188;BME280;1100;52.014;8.540;2022-12-20T01:45:48;100090.66;;;8.45;89.25
2188;BME280;1100;52.014;8.540;2022-12-20T01:48:15;100092.66;;;8.44;89.08
2188;BME280;1100;52.014;8.540;2022-12-20T01:50:43;100091.53;;;8.42;89.10
2188;BME280;1100;52.014;8.540;2022-12-20T01:53:09;100098.59;;;8.43;88.98
2188;BME280;1100;52.014;8.540;2022-12-20T01:55:35;100098.59;;;8.43;89.18
2188;BME280;1100;52.014;8.540;2022-12-20T01:58:04;100092.59;;;8.48;89.54
2188;BME280;1100;52.014;8.540;2022-12-20T02:00:30;100092.09;;;8.53;89.46
2188;BME280;1100;52.014;8.540;2022-12-20T02:02:58;100090.88;;;8.58;89.27
2188;BME280;1100;52.014;8.540;2022-12-20T02:05:25;100079.78;;;8.58;89.14
2188;BME280;1100;52.014;8.540;2022-12-20T02:07:52;100076.25;;;8.54;89.08
2188;BME280;1100;52.014;8.540;2022-12-20T02:10:22;100061.63;;;8.53;89.18
2188;BME280;1100;52.014;8.540;2022-12-20T02:12:50;100065.16;;;8.54;89.19
2188;BME280;1100;52.014;8.540;2022-12-20T02:15:46;100062.38;;;8.57;89.25
2188;BME280;1100;52.014;8.540;2022-12-20T02:18:34;100052.41;;;8.60;89.21
2188;BME280;1100;52.014;8.540;2022-12-20T02:21:42;100044.09;;;8.60;89.01
2188;BME280;1100;52.014;8.540;2022-12-20T02:32:33;100047.06;;;8.69;89.21
2188;BME280;1100;52.014;8.540;2022-12-20T02:35:02;100048.03;;;8.63;89.15
2188;BME280;1100;52.014;8.540;2022-12-20T02:37:27;100039.72;;;8.63;89.17
2188;BME280;1100;52.014;8.540;2022-12-20T02:39:52;100029.38;;;8.63;89.21
2188;BME280;1100;52.014;8.540;2022-12-20T02:42:21;100029.75;;;8.65;89.05
2188;BME280;1100;52.014;8.540;2022-12-20T02:44:58;100030.53;;;8.66;88.94
2188;BME280;1100;52.014;8.540;2022-12-20T02:48:00;100038.06;;;8.65;89.07
2188;BME280;1100;52.014;8.540;2022-12-20T02:50:41;100038.06;;;8.65;88.84
2188;BME280;1100;52.014;8.540;2022-12-20T02:53:09;100025.34;;;8.68;88.93
2188;BME280;1100;52.014;8.540;2022-12-20T02:58:31;100025.44;;;8.64;88.88
2188;BME280;1100;52.014;8.540;2022-12-20T03:01:00;100027.84;;;8.62;88.92
2188;BME280;1100;52.014;8.540;2022-12-20T03:03:31;100019.53;;;8.62;88.83
2188;BME280;1100;52.014;8.540;2022-12-20T03:05:57;100009.00;;;8.74;89.22
2188;BME280;1100;52.014;8.540;2022-12-20T03:08:23;100002.94;;;8.79;89.08
2188;BME280;1100;52.014;8.540;2022-12-20T03:10:49;100013.16;;;8.82;89.04
2188;BME280;1100;52.014;8.540;2022-12-20T03:13:15;100021.47;;;8.82;89.00
2188;BME280;1100;52.014;8.540;2022-12-20T03:15:41;100013.47;;;8.88;89.07
2188;BME280;1100;52.014;8.540;2022-12-20T03:18:06;100009.47;;;8.89;88.66
2188;BME280;1100;52.014;8.540;2022-12-20T03:20:32;100021.59;;;8.95;89.08
2188;BME280;1100;52.014;8.540;2022-12-20T03:22:57;100001.84;;;8.93;88.67
2188;BME280;1100;52.014;8.540;2022-12-20T03:25:23;100018.47;;;8.93;88.77
2188;BME280;1100;52.014;8.540;2022-12-20T03:27:49;100016.56;;;8.90;88.93
2188;BME280;1100;52.014;8.540;2022-12-20T03:30:14;100013.47;;;8.88;88.78
2188;BME280;1100;52.014;8.540;2022-12-20T03:32:40;100004.41;;;8.83;88.66
2188;BME280;1100;52.014;8.540;2022-12-20T03:35:06;100013.94;;;8.82;88.63
2188;BME280;1100;52.014;8.540;2022-12-20T03:37:31;100013.16;;;8.82;88.73
2188;BME280;1100;52.014;8.540;2022-12-20T03:39:56;100018.63;;;8.85;88.58
2188;BME280;1100;52.014;8.540;2022-12-20T03:42:22;100024.13;;;8.89;88.83
2188;BME280;1100;52.014;8.540;2022-12-20T03:44:47;100025.72;;;8.87;88.50
2188;BME280;1100;52.014;8.540;2022-12-20T03:47:13;100021.41;;;8.85;88.83
2188;BME280;1100;52.014;8.540;2022-12-20T03:49:38;100009.53;;;8.85;88.40
2188;BME280;1100;52.014;8.540;2022-12-20T03:52:04;100015.50;;;8.83;88.60
2188;BME280;1100;52.014;8.540;2022-12-20T03:54:29;100026.94;;;8.85;88.77
2188;BME280;1100;52.014;8.540;2022-12-20T03:56:54;100024.53;;;8.88;88.64
2188;BME280;1100;52.014;8.540;2022-12-20T03:59:19;100025.72;;;8.87;88.61
2188;BME280;1100;52.014;8.540;2022-12-20T04:01:45;100029.38;;;8.83;88.50
2188;BME280;1100;52.014;8.540;2022-12-20T04:04:12;100018.72;;;8.82;88.71
2188;BME280;1100;52.014;8.540;2022-12-20T04:06:38;100038.09;;;8.82;88.60
2188;BME280;1100;52.014;8.540;2022-12-20T04:09:03;100033.63;;;8.88;88.94
2188;BME280;1100;52.014;8.540;2022-12-20T04:11:30;100046.19;;;8.93;88.52
2188;BME280;1100;52.014;8.540;2022-12-20T04:13:55;100037.44;;;8.94;88.49
2188;BME280;1100;52.014;8.540;2022-12-20T04:16:23;100050.56;;;8.94;88.27
2188;BME280;1100;52.014;8.540;2022-12-20T04:18:49;100043.09;;;8.91;88.08
2188;BME280;1100;52.014;8.540;2022-12-20T04:21:32;100041.19;;;8.88;88.13
2188;BME280;1100;52.014;8.540;2022-12-20T04:23:59;100041.66;;;8.82;88.12
2188;BME280;1100;52.014;8.540;2022-12-20T04:26:25;100039.50;;;8.74;88.07
2188;BME280;1100;52.014;8.540;2022-12-20T04:28:50;100037.69;;;8.63;88.26
2188;BME280;1100;52.014;8.540;2022-12-20T04:31:16;100037.47;;;8.54;88.04
2188;BME280;1100;52.014;8.540;2022-12-20T04:33:41;100030.09;;;8.47;88.09
2188;BME280;1100;52.014;8.540;2022-12-20T04:36:07;100027.81;;;8.42;88.12
2188;BME280;1100;52.014;8.540;2022-12-20T04:38:33;100025.88;;;8.39;88.37
2188;BME280;1100;52.014;8.540;2022-12-20T04:40:58;100025.19;;;8.34;88.24
2188;BME280;1100;52.014;8.540;2022-12-20T04:43:24;100022.13;;;8.29;88.42
2188;BME280;1100;52.014;8.540;2022-12-20T04:45:51;100022.97;;;8.26;88.62
2188;BME280;1100;52.014;8.540;2022-12-20T04:48:18;100018.00;;;8.17;88.56
2188;BME280;1100;52.014;8.540;2022-12-20T04:50:48;100010.06;;;8.19;89.01
2188;BME280;1100;52.014;8.540;2022-12-20T04:53:13;100004.50;;;8.19;88.88
2188;BME280;1100;52.014;8.540;2022-12-20T04:55:58;100005.69;;;8.18;88.97
2188;BME280;1100;52.014;8.540;2022-12-20T04:58:23;100012.81;;;8.19;89.03
2188;BME280;1100;52.014;8.540;2022-12-20T05:00:49;100023.53;;;8.17;88.85
2188;BME280;1100;52.014;8.540;2022-12-20T05:03:17;100014.00;;;8.18;88.92
2188;BME280;1100;52.014;8.540;2022-12-20T05:05:42;100018.00;;;8.17;88.89
2188;BME280;1100;52.014;8.540;2022-12-20T05:08:07;100009.19;;;8.22;89.12
2188;BME280;1100;52.014;8.540;2022-12-20T05:10:33;100013.03;;;8.28;89.50
2188;BME280;1100;52.014;8.540;2022-12-20T05:12:58;100007.84;;;8.30;88.96
2188;BME280;1100;52.014;8.540;2022-12-20T05:15:23;100000.59;;;8.37;89.33
2188;BME280;1100;52.014;8.540;2022-12-20T05:17:48;99999.75;;;8.40;89.33
2188;BME280;1100;52.014;8.540;2022-12-20T05:20:14;100003.72;;;8.39;89.25
2188;BME280;1100;52.014;8.540;2022-12-20T05:22:39;100006.50;;;8.39;89.02
2188;BME280;1100;52.014;8.540;2022-12-20T05:25:23;100012.53;;;8.33;89.09
2188;BME280;1100;52.014;8.540;2022-12-20T05:28:07;100007.63;;;8.41;89.28
2188;BME280;1100;52.014;8.540;2022-12-20T05:30:32;100006.06;;;8.40;89.32
2188;BME280;1100;52.014;8.540;2022-12-20T05:32:57;99999.75;;;8.40;89.24
2188;BME280;1100;52.014;8.540;2022-12-20T05:35:23;100003.38;;;8.37;89.20
2188;BME280;1100;52.014;8.540;2022-12-20T05:37:48;99994.63;;;8.38;89.43
2188;BME280;1100;52.014;8.540;2022-12-20T05:40:13;99998.56;;;8.41;89.25
2188;BME280;1100;52.014;8.540;2022-12-20T05:42:40;100001.22;;;8.44;89.34
2188;BME280;1100;52.014;8.540;2022-12-20T05:45:06;99998.03;;;8.46;89.34
2188;BME280;1100;52.014;8.540;2022-12-20T05:47:31;100005.16;;;8.47;89.40
2188;BME280;1100;52.014;8.540;2022-12-20T05:50:02;100002.03;;;8.45;89.26
2188;BME280;1100;52.014;8.540;2022-12-20T05:52:28;100004.84;;;8.41;89.21
2188;BME280;1100;52.014;8.540;2022-12-20T05:54:53;99995.78;;;8.41;89.28
2188;BME280;1100;52.014;8.540;2022-12-20T05:57:19;99998.25;;;8.35;89.34
2188;BME280;1100;52.014;8.540;2022-12-20T05:59:44;99999.53;;;8.30;89.25
2188;BME280;1100;52.014;8.540;2022-12-20T06:02:09;99984.97;;;8.26;89.35
2188;BME280;1100;52.014;8.540;2022-12-20T06:04:36;99984.97;;;8.26;89.45
2188;BME280;1100;52.014;8.540;2022-12-20T06:07:02;99984.28;;;8.22;89.38
2188;BME280;1100;52.014;8.540;2022-12-20T06:09:29;99980.06;;;8.14;89.25
2188;BME280;1100;52.014;8.540;2022-12-20T06:11:54;99976.66;;;8.06;89.15
2188;BME280;1100;52.014;8.540;2022-12-20T06:14:20;99979.56;;;7.98;89.25
2188;BME280;1100;52.014;8.540;2022-12-20T06:16:45;99990.75;;;7.91;89.13
2188;BME280;1100;52.014;8.540;2022-12-20T06:19:11;99987.34;;;7.83;89.30
2188;BME280;1100;52.014;8.540;2022-12-20T06:21:36;99999.25;;;7.80;89.26
2188;BME280;1100;52.014;8.540;2022-12-20T06:24:02;99989.75;;;7.81;89.68
2188;BME280;1100;52.014;8.540;2022-12-20T06:26:30;99989.75;;;7.81;89.69
2188;BME280;1100;52.014;8.540;2022-12-20T06:29:00;99990.53;;;7.82;89.73
2188;BME280;1100;52.014;8.540;2022-12-20T06:31:26;99992.47;;;7.85;89.84
2188;BME280;1100;52.014;8.540;2022-12-20T06:33:51;99983.34;;;7.84;89.97
2188;BME280;1100;52.014;8.540;2022-12-20T06:36:16;99984.53;;;7.87;90.00
2188;BME280;1100;52.014;8.540;2022-12-20T06:38:42;99972.25;;;7.88;89.95
2188;BME280;1100;52.014;8.540;2022-12-20T06:41:07;99981.66;;;7.91;89.79
2188;BME280;1100;52.014;8.540;2022-12-20T06:43:33;99982.09;;;7.89;89.79
2188;BME280;1100;52.014;8.540;2022-12-20T06:45:58;99990.41;;;7.89;89.87
2188;BME280;1100;52.014;8.540;2022-12-20T06:48:23;99989.50;;;7.96;90.18
2188;BME280;1100;52.014;8.540;2022-12-20T06:50:49;99986.25;;;8.01;90.17
2188;BME280;1100;52.014;8.540;2022-12-20T06:53:14;99971.19;;;8.02;90.02
2188;BME280;1100;52.014;8.540;2022-12-20T06:55:40;99974.38;;;8.01;89.92
2188;BME280;1100;52.014;8.540;2022-12-20T06:58:05;99979.16;;;8.00;89.95
2188;BME280;1100;52.014;8.540;2022-12-20T07:00:31;99971.25;;;7.98;89.90
2188;BME280;1100;52.014;8.540;2022-12-20T07:02:56;99969.75;;;7.94;89.71
2188;BME280;1100;52.014;8.540;2022-12-20T07:05:22;99971.81;;;7.90;90.20
2188;BME280;1100;52.014;8.540;2022-12-20T07:07:47;99963.88;;;7.92;90.25
2188;BME280;1100;52.014;8.540;2022-12-20T07:10:13;99965.06;;;7.91;90.37
2188;BME280;1100;52.014;8.540;2022-12-20T07:12:38;99958.41;;;7.88;89.85
2188;BME280;1100;52.014;8.540;2022-12-20T07:15:08;99960.47;;;7.84;89.86
2188;BME280;1100;52.014;8.540;2022-12-20T07:17:34;99969.53;;;7.84;90.04
2188;BME280;1100;52.014;8.540;2022-12-20T07:19:59;99959.66;;;7.83;90.21
2188;BME280;1100;52.014;8.540;2022-12-20T07:22:24;99971.59;;;7.80;90.03
2188;BME280;1100;52.014;8.540;2022-12-20T07:24:50;99975.19;;;7.77;90.08
2188;BME280;1100;52.014;8.540;2022-12-20T07:27:15;99971.22;;;7.78;90.24
2188;BME280;1100;52.014;8.540;2022-12-20T07:29:41;99967.69;;;7.78;89.96
2188;BME280;1100;52.014;8.540;2022-12-20T07:32:07;99964.91;;;7.78;90.20
2188;BME280;1100;52.014;8.540;2022-12-20T07:34:32;99954.63;;;7.78;90.27
2188;BME280;1100;52.014;8.540;2022-12-20T07:36:58;99962.91;;;7.78;89.85
2188;BME280;1100;52.014;8.540;2022-12-20T07:39:24;99945.97;;;7.76;90.16
2188;BME280;1100;52.014;8.540;2022-12-20T07:41:55;99948.75;;;7.76;90.04
2188;BME280;1100;52.014;8.540;2022-12-20T07:44:21;99960.66;;;7.73;90.02
2188;BME280;1100;52.014;8.540;2022-12-20T07:46:46;99942.47;;;7.72;89.89
2188;BME280;1100;52.014;8.540;2022-12-20T07:49:12;99945.25;;;7.72;90.15
2188;BME280;1100;52.014;8.540;2022-12-20T07:51:44;99945.25;;;7.72;90.20
2188;BME280;1100;52.014;8.540;2022-12-20T07:54:18;99957.53;;;7.71;90.07
2188;BME280;1100;52.014;8.540;2022-12-20T07:56:46;99964.28;;;7.70;90.21
2188;BME280;1100;52.014;8.540;2022-12-20T07:59:15;99955.88;;;7.73;90.04
2188;BME280;1100;52.014;8.540;2022-12-20T08:01:44;99960.56;;;7.77;90.08
2188;BME280;1100;52.014;8.540;2022-12-20T08:04:22;99950.28;;;7.77;90.19
2188;BME280;1100;52.014;8.540;2022-12-20T08:06:51;99945.47;;;7.81;90.13
2188;BME280;1100;52.014;8.540;2022-12-20T08:09:20;99942.63;;;7.85;90.33
2188;BME280;1100;52.014;8.540;2022-12-20T08:11:48;99947.31;;;7.88;90.19
2188;BME280;1100;52.014;8.540;2022-12-20T08:14:16;99942.91;;;7.91;90.24
2188;BME280;1100;52.014;8.540;2022-12-20T08:16:43;99942.91;;;7.91;90.31
2188;BME280;1100;52.014;8.540;2022-12-20T08:19:11;99935.78;;;7.93;90.17
2188;BME280;1100;52.014;8.540;2022-12-20T08:21:37;99935.34;;;7.95;90.32
2188;BME280;1100;52.014;8.540;2022-12-20T08:24:02;99924.72;;;7.93;90.35
2188;BME280;1100;52.014;8.540;2022-12-20T08:26:28;99911.28;;;7.92;90.08
2188;BME280;1100;52.014;8.540;2022-12-20T08:28:54;99917.59;;;7.92;90.20
2188;BME280;1100;52.014;8.540;2022-12-20T08:31:23;99939.31;;;7.94;90.33
2188;BME280;1100;52.014;8.540;2022-12-20T08:33:48;99941.97;;;8.01;90.70
2188;BME280;1100;52.014;8.540;2022-12-20T08:36:14;99932.66;;;8.12;90.47
2188;BME280;1100;52.014;8.540;2022-12-20T08:38:40;99931.38;;;8.16;90.54
2188;BME280;1100;52.014;8.540;2022-12-20T08:41:08;99924.56;;;8.21;90.30
2188;BME280;1100;52.014;8.540;2022-12-20T08:43:34;99919.75;;;8.25;90.32
2188;BME280;1100;52.014;8.540;2022-12-20T08:46:00;99916.97;;;8.25;90.04
2188;BME280;1100;52.014;8.540;2022-12-20T08:48:26;99916.03;;;8.32;90.36
2188;BME280;1100;52.014;8.540;2022-12-20T08:50:56;99904.88;;;8.35;90.20
2188;BME280;1100;52.014;8.540;2022-12-20T08:53:22;99905.94;;;8.42;90.22
2188;BME280;1100;52.014;8.540;2022-12-20T08:55:48;99902.31;;;8.45;90.19
2188;BME280;1100;52.014;8.540;2022-12-20T08:58:13;99910.53;;;8.48;90.23
2188;BME280;1100;52.014;8.540;2022-12-20T09:00:40;99909.97;;;8.57;90.36
2188;BME280;1100;52.014;8.540;2022-12-20T09:03:05;99918.97;;;8.62;89.67
2188;BME280;1100;52.014;8.540;2022-12-20T09:05:31;99912.25;;;8.63;89.94
2188;BME280;1100;52.014;8.540;2022-12-20T09:07:57;99928.72;;;8.70;90.00
2188;BME280;1100;52.014;8.540;2022-12-20T09:10:22;99920.66;;;8.76;89.87
2188;BME280;1100;52.014;8.540;2022-12-20T09:12:48;99919.47;;;8.77;89.74
2188;BME280;1100;52.014;8.540;2022-12-20T09:15:13;99904.03;;;8.76;89.63
2188;BME280;1100;52.014;8.540;2022-12-20T09:17:39;99909.50;;;8.79;89.59
2188;BME280;1100;52.014;8.540;2022-12-20T09:20:04;99915.41;;;8.81;89.37
2188;BME280;1100;52.014;8.540;2022-12-20T09:22:30;99899.53;;;8.82;89.42
2188;BME280;1100;52.014;8.540;2022-12-20T09:24:56;99890.44;;;8.81;89.23
2188;BME280;1100;52.014;8.540;2022-12-20T09:27:21;99895.03;;;8.88;89.15
2188;BME280;1100;52.014;8.540;2022-12-20T09:29:47;99895.31;;;8.94;89.07
2188;BME280;1100;52.014;8.540;2022-12-20T09:32:12;99886.13;;;8.97;88.99
2188;BME280;1100;52.014;8.540;2022-12-20T09:34:37;99886.81;;;9.01;88.93
2188;BME280;1100;52.014;8.540;2022-12-20T09:37:03;99883.16;;;9.04;88.75
2188;BME280;1100;52.014;8.540;2022-12-20T09:39:29;99877.97;;;9.06;88.54
2188;BME280;1100;52.014;8.540;2022-12-20T09:41:54;99878.31;;;9.08;88.55
2188;BME280;1100;52.014;8.540;2022-12-20T09:44:35;99866.88;;;9.06;88.50
2188;BME280;1100;52.014;8.540;2022-12-20T09:47:23;99877.97;;;9.06;88.43
2188;BME280;1100;52.014;8.540;2022-12-20T09:49:52;99874.78;;;9.08;88.36
2188;BME280;1100;52.014;8.540;2022-12-20T09:55:12;99883.34;;;9.14;88.08
2188;BME280;1100;52.014;8.540;2022-12-20T10:00:42;99876.56;;;9.31;87.97
2188;BME280;1100;52.014;8.540;2022-12-20T10:03:14;99872.22;;;9.30;87.86
2188;BME280;1100;52.014;8.540;2022-12-20T10:05:53;99880.22;;;9.28;87.78
2188;BME280;1100;52.014;8.540;2022-12-20T10:13:55;99876.72;;;9.24;87.71
2188;BME280;1100;52.014;8.540;2022-12-20T10:19:18;99868.69;;;9.30;87.66
2188;BME280;1100;52.014;8.540;2022-12-20T10:24:22;99875.25;;;9.36;87.62
2188;BME280;1100;52.014;8.540;2022-12-20T10:26:50;99873.28;;;9.37;87.47
2188;BME280;1100;52.014;8.540;2022-12-20T10:29:16;99864.16;;;9.36;87.03
2188;BME280;1100;52.014;8.540;2022-12-20T10:31:41;99868.59;;;9.33;87.16
2188;BME280;1100;52.014;8.540;2022-12-20T10:34:07;99862.34;;;9.29;87.17
2188;BME280;1100;52.014;8.540;2022-12-20T10:36:35;99858.78;;;9.29;87.14
2188;BME280;1100;52.014;8.540;2022-12-20T10:39:05;99858.03;;;9.28;87.18
2188;BME280;1100;52.014;8.540;2022-12-20T10:41:51;99855.69;;;9.27;86.89
2188;BME280;1100;52.014;8.540;2022-12-20T10:44:24;99851.75;;;9.24;87.13
2188;BME280;1100;52.014;8.540;2022-12-20T10:46:58;99851.75;;;9.24;87.08
2188;BME280;1100;52.014;8.540;2022-12-20T10:49:35;99849.53;;;9.19;87.02
2188;BME280;1100;52.014;8.540;2022-12-20T10:54:40;99845.31;;;9.14;87.09
2188;BME280;1100;52.014;8.540;2022-12-20T10:57:22;99838.28;;;9.09;87.10
2188;BME280;1100;52.014;8.540;2022-12-20T11:02:24;99825.28;;;9.06;86.77
2188;BME280;1100;52.014;8.540;2022-12-20T11:05:21;99825.19;;;9.10;86.92
2188;BME280;1100;52.014;8.540;2022-12-20T11:10:25;99827.88;;;9.14;87.03
2188;BME280;1100;52.014;8.540;2022-12-20T11:12:56;99820.66;;;9.16;87.31
2188;BME280;1100;52.014;8.540;2022-12-20T11:15:24;99827.69;;;9.21;87.19
2188;BME280;1100;52.014;8.540;2022-12-20T11:17:55;99808.63;;;9.23;87.06
2188;BME280;1100;52.014;8.540;2022-12-20T11:23:22;99802.97;;;9.27;87.16
2188;BME280;1100;52.014;8.540;2022-12-20T11:28:43;99804.63;;;9.24;87.03
2188;BME280;1100;52.014;8.540;2022-12-20T11:36:51;99781.31;;;9.21;87.08
2188;BME280;1100;52.014;8.540;2022-12-20T11:39:31;99779.34;;;9.22;87.10
2188;BME280;1100;52.014;8.540;2022-12-20T11:47:51;99770.63;;;9.37;87.10
2188;BME280;1100;52.014;8.540;2022-12-20T11:50:44;99761.44;;;9.40;87.21
2188;BME280;1100;52.014;8.540;2022-12-20T11:56:00;99771.09;;;9.48;87.22
2188;BME280;1100;52.014;8.540;2022-12-20T12:01:23;99752.69;;;9.54;87.15
2188;BME280;1100;52.014;8.540;2022-12-20T12:03:59;99751.13;;;9.53;87.14
2188;BME280;1100;52.014;8.540;2022-12-20T12:06:35;99755.03;;;9.56;87.24
2188;BME280;1100;52.014;8.540;2022-12-20T12:11:34;99739.28;;;9.66;87.26
2188;BME280;1100;52.014;8.540;2022-12-20T12:14:02;99735.97;;;9.71;87.11
2188;BME280;1100;52.014;8.540;2022-12-20T12:16:34;99731.19;;;9.71;86.85
2188;BME280;1100;52.014;8.540;2022-12-20T12:19:01;99725.53;;;9.75;87.17
2188;BME280;1100;52.014;8.540;2022-12-20T12:21:33;99726.63;;;9.78;86.86
2188;BME280;1100;52.014;8.540;2022-12-20T12:24:13;99729.75;;;9.80;86.48
2188;BME280;1100;52.014;8.540;2022-12-20T12:26:41;99724.09;;;9.83;86.81
2188;BME280;1100;52.014;8.540;2022-12-20T12:29:17;99722.53;;;9.82;86.64
2188;BME280;1100;52.014;8.540;2022-12-20T12:32:09;99721.88;;;9.78;86.67
2188;BME280;1100;52.014;8.540;2022-12-20T12:35:00;99725.31;;;9.82;86.63
2188;BME280;1100;52.014;8.540;2022-12-20T12:40:28;99728.44;;;9.84;86.21
2188;BME280;1100;52.014;8.540;2022-12-20T12:45:57;99721.44;;;9.80;86.20
2188;BME280;1100;52.014;8.540;2022-12-20T12:48:29;99718.44;;;9.74;86.18
2188;BME280;1100;52.014;8.540;2022-12-20T12:51:00;99705.88;;;9.69;86.51
2188;BME280;1100;52.014;8.540;2022-12-20T12:53:42;99712.09;;;9.74;86.43
2188;BME280;1100;52.014;8.540;2022-12-20T13:15:10;99709.44;;;9.96;86.36
2188;BME280;1100;52.014;8.540;2022-12-20T13:17:56;99711.22;;;9.90;86.16
2188;BME280;1100;52.014;8.540;2022-12-20T13:20:30;99710.31;;;9.80;86.10
2188;BME280;1100;52.014;8.540;2022-12-20T13:33:43;99710.88;;;9.62;86.66
2188;BME280;1100;52.014;8.540;2022-12-20T13:38:54;99713.44;;;9.69;87.06
2188;BME280;1100;52.014;8.540;2022-12-20T13:44:02;99708.09;;;9.88;86.80
2188;BME280;1100;52.014;8.540;2022-12-20T13:46:42;99714.56;;;9.97;86.82
2188;BME280;1100;52.014;8.540;2022-12-20T13:49:16;99718.44;;;10.00;86.86
2188;BME280;1100;52.014;8.540;2022-12-20T13:51:44;99706.09;;;10.01;86.65
2188;BME280;1100;52.014;8.540;2022-12-20T13:54:18;99709.44;;;10.09;86.80
2188;BME280;1100;52.014;8.540;2022-12-20T13:56:47;99708.78;;;10.18;86.40
2188;BME280;1100;52.014;8.540;2022-12-20T13:59:24;99706.66;;;10.22;86.68
2188;BME280;1100;52.014;8.540;2022-12-20T14:01:54;99710.41;;;10.28;nan
2188;BME280;1100;52.014;8.540;2022-12-20T14:04:20;99698.53;;;10.28;86.33
2188;BME280;1100;52.014;8.540;2022-12-20T14:06:54;99710.75;;;10.30;86.08
2188;BME280;1100;52.014;8.540;2022-12-20T14:09:36;99701.09;;;10.35;86.27
2188;BME280;1100;52.014;8.540;2022-12-20T14:12:13;99695.06;;;10.37;86.32
2188;BME280;1100;52.014;8.540;2022-12-20T14:14:45;99697.84;;;10.37;86.35
2188;BME280;1100;52.014;8.540;2022-12-20T14:20:01;99706.84;;;10.41;85.46
2188;BME280;1100;52.014;8.540;2022-12-20T14:22:27;99705.94;;;10.44;85.67
2188;BME280;1100;52.014;8.540;2022-12-20T14:24:53;99706.41;;;10.42;85.53
2188;BME280;1100;52.014;8.540;2022-12-20T14:27:18;99700.94;;;10.39;85.54
2188;BME280;1100;52.014;8.540;2022-12-20T14:29:43;99693.50;;;10.35;85.45
2188;BME280;1100;52.014;8.540;2022-12-20T14:32:17;99690.06;;;10.31;85.30
2188;BME280;1100;52.014;8.540;2022-12-20T14:34:44;99691.63;;;10.32;85.31
2188;BME280;1100;52.014;8.540;2022-12-20T14:40:01;99693.63;;;10.32;85.43
2188;BME280;1100;52.014;8.540;2022-12-20T14:42:33;99681.28;;;10.33;85.51
2188;BME280;1100;52.014;8.540;2022-12-20T14:47:35;99679.22;;;10.24;84.89
2188;BME280;1100;52.014;8.540;2022-12-20T14:50:03;99681.53;;;10.26;85.26
2188;BME280;1100;52.014;8.540;2022-12-20T14:52:37;99680.09;;;10.21;85.13
2188;BME280;1100;52.014;8.540;2022-12-20T14:55:13;99685.31;;;10.19;85.36
2188;BME280;1100;52.014;8.540;2022-12-20T14:57:49;99685.78;;;10.17;85.24
2188;BME280;1100;52.014;8.540;2022-12-20T15:00:29;99693.31;;;10.17;85.44
2188;BME280;1100;52.014;8.540;2022-12-20T15:02:56;99691.75;;;10.16;85.37
2188;BME280;1100;52.014;8.540;2022-12-20T15:10:39;99700.66;;;10.10;85.34
2188;BME280;1100;52.014;8.540;2022-12-20T15:13:11;99704.00;;;10.05;85.35
2188;BME280;1100;52.014;8.540;2022-12-20T15:15:37;99711.78;;;9.97;85.05
2188;BME280;1100;52.014;8.540;2022-12-20T15:18:17;99715.78;;;9.83;85.19
2188;BME280;1100;52.014;8.540;2022-12-20T15:20:45;99714.66;;;9.68;85.27
2188;BME280;1100;52.014;8.540;2022-12-20T15:23:14;99714.41;;;9.49;85.23
2188;BME280;1100;52.014;8.540;2022-12-20T15:25:40;99718.81;;;9.33;85.47
2188;BME280;1100;52.014;8.540;2022-12-20T15:28:23;99712.88;;;9.18;85.74
2188;BME280;1100;52.014;8.540;2022-12-20T15:30:49;99719.16;;;9.06;85.89
2188;BME280;1100;52.014;8.540;2022-12-20T15:33:26;99723.75;;;8.96;86.64